createdAt,value
2017-01-12T00:00:01.206Z,22.57
2017-01-12T00:00:16.012Z,22.57
2017-01-12T00:00:30.905Z,22.57
2017-01-12T00:00:45.778Z,22.55
2017-01-12T00:01:00.593Z,22.52
2017-01-12T00:01:15.416Z,22.52
2017-01-12T00:01:30.248Z,22.54
2017-01-12T00:01:45.060Z,22.52
2017-01-12T00:01:59.890Z,22.52
2017-01-12T00:02:14.735Z,22.54
2017-01-12T00:02:29.540Z,22.46
2017-01-12T00:02:44.387Z,22.44
2017-01-12T00:02:59.166Z,22.54
2017-01-12T00:03:13.964Z,22.49
2017-01-12T00:03:28.714Z,22.54
2017-01-12T00:03:43.486Z,22.54
2017-01-12T00:03:58.269Z,22.51
2017-01-12T00:04:13.097Z,22.52
2017-01-12T00:04:27.895Z,22.52
2017-01-12T00:04:42.675Z,22.49
2017-01-12T00:04:57.458Z,22.51
2017-01-12T00:05:12.247Z,22.51
2017-01-12T00:05:27.018Z,22.52
2017-01-12T00:05:41.808Z,22.54
2017-01-12T00:05:56.578Z,22.54
2017-01-12T00:06:11.395Z,22.55
2017-01-12T00:06:26.214Z,22.54
2017-01-12T00:06:41.020Z,22.54
2017-01-12T00:06:55.908Z,22.51
2017-01-12T00:07:10.709Z,22.48
2017-01-12T00:07:25.511Z,22.52
2017-01-12T00:07:40.356Z,22.49
2017-01-12T00:07:55.273Z,22.52
2017-01-12T00:08:10.097Z,22.54
2017-01-12T00:08:24.929Z,22.55
2017-01-12T00:08:39.766Z,22.51
2017-01-12T00:08:54.622Z,22.52
2017-01-12T00:09:09.478Z,22.55
2017-01-12T00:09:24.293Z,22.63
2017-01-12T00:09:39.132Z,22.63
2017-01-12T00:09:53.934Z,22.54
2017-01-12T00:10:08.989Z,22.6
2017-01-12T00:10:23.743Z,22.54
2017-01-12T00:10:38.617Z,22.57
2017-01-12T00:10:53.437Z,22.54
2017-01-12T00:11:08.262Z,22.59
2017-01-12T00:11:22.995Z,22.57
2017-01-12T00:11:37.809Z,22.59
2017-01-12T00:11:52.607Z,22.64
2017-01-12T00:12:07.444Z,22.55
2017-01-12T00:12:22.243Z,22.6
2017-01-12T00:12:37.044Z,22.61
2017-01-12T00:12:51.848Z,22.55
2017-01-12T00:13:06.612Z,22.61
2017-01-12T00:13:21.455Z,22.63
2017-01-12T00:13:36.284Z,22.66
2017-01-12T00:13:51.182Z,22.57
2017-01-12T00:14:05.974Z,22.63
2017-01-12T00:14:20.755Z,22.55
2017-01-12T00:14:35.576Z,22.63
2017-01-12T00:14:50.393Z,22.63
2017-01-12T00:15:05.148Z,22.52
2017-01-12T00:15:19.995Z,22.6
2017-01-12T00:15:34.844Z,22.52
2017-01-12T00:15:49.659Z,22.66
2017-01-12T00:16:04.572Z,22.61
2017-01-12T00:16:19.387Z,22.61
2017-01-12T00:16:34.136Z,22.61
2017-01-12T00:16:48.959Z,22.64
2017-01-12T00:17:03.816Z,22.55
2017-01-12T00:17:18.624Z,22.63
2017-01-12T00:17:33.448Z,22.55
2017-01-12T00:17:48.185Z,22.57
2017-01-12T00:18:03.003Z,22.61
2017-01-12T00:18:17.902Z,22.57
2017-01-12T00:18:32.685Z,22.6
2017-01-12T00:18:47.554Z,22.57
2017-01-12T00:19:02.323Z,22.63
2017-01-12T00:19:17.108Z,22.57
2017-01-12T00:19:31.901Z,22.57
2017-01-12T00:19:46.684Z,22.59
2017-01-12T00:20:01.483Z,22.61
2017-01-12T00:20:16.250Z,22.54
2017-01-12T00:20:31.014Z,22.6
2017-01-12T00:20:45.792Z,22.61
2017-01-12T00:21:00.546Z,22.52
2017-01-12T00:21:15.366Z,22.59
2017-01-12T00:21:30.203Z,22.61
2017-01-12T00:21:44.992Z,22.63
2017-01-12T00:21:59.799Z,22.54
2017-01-12T00:22:14.559Z,22.59
2017-01-12T00:22:29.312Z,22.6
2017-01-12T00:22:44.101Z,22.6
2017-01-12T00:22:58.884Z,22.57
2017-01-12T00:23:13.749Z,22.59
2017-01-12T00:23:28.533Z,22.61
2017-01-12T00:23:43.354Z,22.55
2017-01-12T00:23:58.142Z,22.6
2017-01-12T00:24:12.890Z,22.6
2017-01-12T00:24:27.676Z,22.57
2017-01-12T00:24:42.492Z,22.64
2017-01-12T00:24:57.296Z,22.59
2017-01-12T00:25:12.478Z,22.6
2017-01-12T00:25:27.319Z,22.55
2017-01-12T00:25:42.190Z,22.59
2017-01-12T00:25:56.985Z,22.61
2017-01-12T00:26:11.827Z,22.63
2017-01-12T00:26:26.617Z,22.63
2017-01-12T00:26:41.447Z,22.64
2017-01-12T00:26:56.325Z,22.66
2017-01-12T00:27:11.105Z,22.64
2017-01-12T00:27:25.946Z,22.63
2017-01-12T00:27:40.720Z,22.63
2017-01-12T00:27:55.558Z,22.63
2017-01-12T00:28:10.327Z,22.61
2017-01-12T00:28:25.096Z,22.63
2017-01-12T00:28:39.883Z,22.67
2017-01-12T00:28:54.657Z,22.67
2017-01-12T00:29:09.454Z,22.69
2017-01-12T00:29:24.216Z,22.61
2017-01-12T00:29:38.974Z,22.67
2017-01-12T00:29:53.782Z,22.71
2017-01-12T00:30:08.626Z,22.79
2017-01-12T00:30:23.406Z,22.75
2017-01-12T00:30:38.203Z,22.76
2017-01-12T00:30:52.958Z,22.76
2017-01-12T00:31:07.703Z,22.79
2017-01-12T00:31:22.527Z,22.76
2017-01-12T00:31:37.338Z,22.76
2017-01-12T00:31:52.149Z,22.79
2017-01-12T00:32:06.987Z,22.7
2017-01-12T00:32:21.830Z,22.73
2017-01-12T00:32:36.594Z,22.71
2017-01-12T00:32:51.436Z,22.76
2017-01-12T00:33:06.161Z,22.7
2017-01-12T00:33:20.991Z,22.67
2017-01-12T00:33:35.825Z,22.7
2017-01-12T00:33:50.676Z,22.71
2017-01-12T00:34:05.484Z,22.69
2017-01-12T00:34:20.300Z,22.7
2017-01-12T00:34:35.165Z,22.73
2017-01-12T00:34:49.944Z,22.73
2017-01-12T00:35:04.791Z,22.76
2017-01-12T00:35:19.670Z,22.76
2017-01-12T00:35:34.471Z,22.76
2017-01-12T00:35:49.311Z,22.75
2017-01-12T00:36:04.115Z,22.79
2017-01-12T00:36:18.937Z,22.82
2017-01-12T00:36:33.679Z,22.82
2017-01-12T00:36:48.489Z,22.84
2017-01-12T00:37:03.311Z,22.79
2017-01-12T00:37:18.022Z,22.73
2017-01-12T00:37:32.815Z,22.81
2017-01-12T00:37:47.571Z,22.76
2017-01-12T00:38:02.334Z,22.71
2017-01-12T00:38:17.086Z,22.76
2017-01-12T00:38:32.015Z,22.75
2017-01-12T00:38:47.726Z,22.73
2017-01-12T00:39:02.510Z,22.76
2017-01-12T00:39:17.293Z,22.75
2017-01-12T00:39:32.283Z,22.67
2017-01-12T00:39:47.062Z,22.71
2017-01-12T00:40:01.837Z,22.71
2017-01-12T00:40:16.931Z,22.81
2017-01-12T00:40:31.733Z,22.76
2017-01-12T00:40:46.456Z,22.82
2017-01-12T00:41:01.249Z,22.84
2017-01-12T00:41:16.036Z,22.82
2017-01-12T00:41:30.847Z,22.84
2017-01-12T00:41:45.673Z,22.84
2017-01-12T00:42:00.449Z,22.86
2017-01-12T00:42:15.229Z,22.84
2017-01-12T00:42:30.051Z,22.84
2017-01-12T00:42:44.925Z,22.88
2017-01-12T00:42:59.733Z,22.88
2017-01-12T00:43:14.488Z,22.88
2017-01-12T00:43:29.332Z,22.85
2017-01-12T00:43:44.085Z,23
2017-01-12T00:43:58.837Z,23.01
2017-01-12T00:44:13.642Z,23
2017-01-12T00:44:28.427Z,23.09
2017-01-12T00:44:43.258Z,23.07
2017-01-12T00:44:58.016Z,22.97
2017-01-12T00:45:12.845Z,23.01
2017-01-12T00:45:27.680Z,22.97
2017-01-12T00:45:42.505Z,23
2017-01-12T00:45:57.293Z,23.01
2017-01-12T00:46:12.067Z,22.99
2017-01-12T00:46:26.885Z,22.99
2017-01-12T00:46:41.650Z,23.07
2017-01-12T00:46:56.479Z,22.94
2017-01-12T00:47:11.300Z,22.99
2017-01-12T00:47:26.172Z,23.01
2017-01-12T00:47:40.983Z,22.99
2017-01-12T00:47:55.793Z,22.86
2017-01-12T00:48:10.610Z,22.86
2017-01-12T00:48:25.335Z,22.97
2017-01-12T00:48:40.205Z,22.89
2017-01-12T00:48:54.995Z,22.88
2017-01-12T00:49:09.810Z,22.96
2017-01-12T00:49:24.650Z,22.91
2017-01-12T00:49:39.459Z,22.81
2017-01-12T00:49:54.257Z,22.88
2017-01-12T00:50:09.076Z,22.85
2017-01-12T00:50:23.930Z,22.85
2017-01-12T00:50:38.712Z,22.89
2017-01-12T00:50:53.525Z,22.91
2017-01-12T00:51:08.282Z,22.96
2017-01-12T00:51:23.096Z,22.97
2017-01-12T00:51:37.860Z,22.94
2017-01-12T00:51:52.666Z,22.84
2017-01-12T00:52:07.522Z,22.89
2017-01-12T00:52:22.336Z,22.94
2017-01-12T00:52:37.149Z,22.94
2017-01-12T00:52:52.088Z,22.97
2017-01-12T00:53:06.909Z,22.91
2017-01-12T00:53:21.647Z,22.91
2017-01-12T00:53:36.475Z,22.92
2017-01-12T00:53:51.290Z,22.91
2017-01-12T00:54:06.034Z,22.85
2017-01-12T00:54:20.803Z,22.89
2017-01-12T00:54:35.642Z,22.99
2017-01-12T00:54:50.491Z,22.97
2017-01-12T00:55:05.226Z,23
2017-01-12T00:55:20.204Z,22.91
2017-01-12T00:55:34.983Z,22.94
2017-01-12T00:55:49.818Z,22.88
2017-01-12T00:56:04.615Z,23.01
2017-01-12T00:56:19.399Z,23.04
2017-01-12T00:56:34.185Z,22.91
2017-01-12T00:56:49.006Z,22.94
2017-01-12T00:57:03.864Z,22.89
2017-01-12T00:57:18.656Z,23.01
2017-01-12T00:57:33.395Z,22.85
2017-01-12T00:57:48.271Z,22.96
2017-01-12T00:58:03.067Z,22.88
2017-01-12T00:58:17.905Z,22.92
2017-01-12T00:58:32.744Z,22.84
2017-01-12T00:58:47.540Z,22.91
2017-01-12T00:59:02.358Z,22.85
2017-01-12T00:59:17.208Z,22.85
2017-01-12T00:59:32.003Z,22.82
2017-01-12T00:59:46.797Z,22.88
2017-01-12T01:00:01.642Z,22.88
2017-01-12T01:00:16.446Z,22.89
2017-01-12T01:00:31.313Z,22.85
2017-01-12T01:00:46.127Z,22.88
2017-01-12T01:01:00.904Z,22.86
2017-01-12T01:01:15.700Z,22.92
2017-01-12T01:01:30.472Z,22.88
2017-01-12T01:01:45.295Z,22.85
2017-01-12T01:02:00.179Z,22.84
2017-01-12T01:02:15.022Z,22.85
2017-01-12T01:02:29.786Z,22.86
2017-01-12T01:02:44.602Z,22.85
2017-01-12T01:02:59.405Z,22.86
2017-01-12T01:03:14.182Z,22.84
2017-01-12T01:03:29.013Z,22.88
2017-01-12T01:03:43.789Z,22.82
2017-01-12T01:03:58.529Z,22.81
2017-01-12T01:04:13.340Z,22.76
2017-01-12T01:04:28.191Z,22.79
2017-01-12T01:04:43.002Z,22.82
2017-01-12T01:04:57.800Z,22.76
2017-01-12T01:05:12.633Z,22.88
2017-01-12T01:05:27.484Z,22.73
2017-01-12T01:05:42.330Z,22.71
2017-01-12T01:05:57.122Z,22.81
2017-01-12T01:06:11.933Z,22.82
2017-01-12T01:06:26.718Z,22.84
2017-01-12T01:06:41.503Z,22.79
2017-01-12T01:06:56.305Z,22.85
2017-01-12T01:07:11.081Z,22.82
2017-01-12T01:07:25.860Z,22.79
2017-01-12T01:07:40.589Z,22.86
2017-01-12T01:07:55.375Z,22.75
2017-01-12T01:08:10.151Z,22.71
2017-01-12T01:08:24.938Z,22.82
2017-01-12T01:08:39.823Z,22.81
2017-01-12T01:08:54.625Z,22.81
2017-01-12T01:09:09.447Z,22.82
2017-01-12T01:09:24.365Z,22.84
2017-01-12T01:09:39.159Z,22.76
2017-01-12T01:09:53.964Z,22.78
2017-01-12T01:10:08.757Z,22.79
2017-01-12T01:10:23.796Z,22.73
2017-01-12T01:10:38.602Z,22.73
2017-01-12T01:10:53.404Z,22.76
2017-01-12T01:11:08.199Z,22.78
2017-01-12T01:11:23.030Z,22.76
2017-01-12T01:11:37.788Z,22.76
2017-01-12T01:11:52.617Z,22.73
2017-01-12T01:12:07.469Z,22.81
2017-01-12T01:12:22.310Z,22.76
2017-01-12T01:12:37.083Z,22.79
2017-01-12T01:12:51.939Z,22.81
2017-01-12T01:13:06.759Z,22.79
2017-01-12T01:13:21.554Z,22.79
2017-01-12T01:13:36.336Z,22.85
2017-01-12T01:13:51.182Z,22.84
2017-01-12T01:14:06.050Z,22.79
2017-01-12T01:14:20.842Z,22.79
2017-01-12T01:14:35.634Z,22.79
2017-01-12T01:14:50.384Z,22.86
2017-01-12T01:15:05.175Z,22.75
2017-01-12T01:15:19.977Z,22.81
2017-01-12T01:15:34.785Z,22.78
2017-01-12T01:15:49.630Z,22.78
2017-01-12T01:16:04.425Z,22.85
2017-01-12T01:16:19.297Z,22.91
2017-01-12T01:16:34.095Z,22.85
2017-01-12T01:16:48.829Z,22.86
2017-01-12T01:17:03.600Z,22.81
2017-01-12T01:17:18.394Z,22.88
2017-01-12T01:17:33.210Z,22.78
2017-01-12T01:17:48.036Z,22.78
2017-01-12T01:18:02.871Z,22.82
2017-01-12T01:18:17.691Z,22.88
2017-01-12T01:18:32.457Z,22.89
2017-01-12T01:18:47.278Z,22.81
2017-01-12T01:19:02.075Z,22.82
2017-01-12T01:19:16.858Z,22.84
2017-01-12T01:19:31.670Z,22.79
2017-01-12T01:19:46.384Z,22.73
2017-01-12T01:20:01.155Z,22.79
2017-01-12T01:20:15.968Z,22.82
2017-01-12T01:20:30.852Z,22.88
2017-01-12T01:20:45.622Z,22.85
2017-01-12T01:21:00.453Z,22.78
2017-01-12T01:21:15.318Z,22.84
2017-01-12T01:21:30.112Z,22.75
2017-01-12T01:21:44.986Z,22.81
2017-01-12T01:21:59.744Z,22.81
2017-01-12T01:22:14.446Z,22.7
2017-01-12T01:22:29.236Z,22.81
2017-01-12T01:22:44.059Z,22.73
2017-01-12T01:22:58.877Z,22.75
2017-01-12T01:23:13.722Z,22.76
2017-01-12T01:23:28.578Z,22.82
2017-01-12T01:23:43.391Z,22.82
2017-01-12T01:23:58.183Z,22.81
2017-01-12T01:24:12.978Z,22.79
2017-01-12T01:24:27.733Z,22.78
2017-01-12T01:24:42.571Z,22.81
2017-01-12T01:24:57.335Z,22.79
2017-01-12T01:25:12.146Z,22.82
2017-01-12T01:25:27.008Z,22.78
2017-01-12T01:25:42.134Z,22.82
2017-01-12T01:25:56.957Z,22.75
2017-01-12T01:26:11.798Z,22.82
2017-01-12T01:26:26.587Z,22.82
2017-01-12T01:26:41.363Z,22.82
2017-01-12T01:26:56.145Z,22.88
2017-01-12T01:27:10.970Z,22.84
2017-01-12T01:27:25.751Z,22.81
2017-01-12T01:27:40.538Z,22.84
2017-01-12T01:27:55.274Z,22.86
2017-01-12T01:28:10.081Z,22.85
2017-01-12T01:28:24.809Z,22.86
2017-01-12T01:28:39.589Z,22.84
2017-01-12T01:28:54.335Z,22.86
2017-01-12T01:29:09.142Z,22.82
2017-01-12T01:29:23.936Z,22.86
2017-01-12T01:29:38.751Z,22.84
2017-01-12T01:29:53.529Z,22.89
2017-01-12T01:30:08.344Z,22.86
2017-01-12T01:30:23.079Z,22.86
2017-01-12T01:30:37.828Z,22.88
2017-01-12T01:30:52.515Z,22.84
2017-01-12T01:31:07.327Z,22.81
2017-01-12T01:31:22.177Z,22.89
2017-01-12T01:31:36.944Z,22.84
2017-01-12T01:31:51.947Z,22.84
2017-01-12T01:32:06.912Z,22.82
2017-01-12T01:32:21.753Z,22.81
2017-01-12T01:32:36.586Z,22.88
2017-01-12T01:32:51.440Z,22.92
2017-01-12T01:33:06.199Z,22.84
2017-01-12T01:33:20.970Z,22.91
2017-01-12T01:33:35.822Z,22.91
2017-01-12T01:33:50.626Z,22.92
2017-01-12T01:34:05.437Z,22.88
2017-01-12T01:34:20.272Z,22.92
2017-01-12T01:34:35.098Z,22.99
2017-01-12T01:34:49.890Z,22.94
2017-01-12T01:35:04.613Z,22.86
2017-01-12T01:35:19.445Z,22.96
2017-01-12T01:35:34.290Z,22.99
2017-01-12T01:35:49.140Z,23.01
2017-01-12T01:36:03.930Z,23.06
2017-01-12T01:36:18.722Z,22.97
2017-01-12T01:36:33.613Z,23.12
2017-01-12T01:36:48.464Z,23.14
2017-01-12T01:37:03.321Z,23.03
2017-01-12T01:37:18.205Z,23.18
2017-01-12T01:37:33.031Z,23.15
2017-01-12T01:37:47.825Z,23.06
2017-01-12T01:38:02.697Z,23.15
2017-01-12T01:38:17.482Z,23.15
2017-01-12T01:38:32.347Z,23.18
2017-01-12T01:38:47.162Z,23.18
2017-01-12T01:39:01.974Z,23.18
2017-01-12T01:39:16.773Z,23.18
2017-01-12T01:39:31.565Z,23.18
2017-01-12T01:39:46.364Z,23.07
2017-01-12T01:40:01.183Z,23.16
2017-01-12T01:40:15.951Z,23.09
2017-01-12T01:40:30.702Z,23.07
2017-01-12T01:40:45.722Z,23.04
2017-01-12T01:41:00.502Z,23.06
2017-01-12T01:41:15.264Z,23.09
2017-01-12T01:41:30.110Z,23.04
2017-01-12T01:41:44.949Z,23.04
2017-01-12T01:41:59.730Z,23.1
2017-01-12T01:42:14.496Z,23.12
2017-01-12T01:42:29.267Z,23.06
2017-01-12T01:42:44.072Z,23.07
2017-01-12T01:42:58.833Z,23.16
2017-01-12T01:43:13.660Z,23.14
2017-01-12T01:43:28.482Z,23.16
2017-01-12T01:43:43.256Z,23.32
2017-01-12T01:43:58.037Z,23.34
2017-01-12T01:44:12.837Z,23.34
2017-01-12T01:44:27.704Z,23.34
2017-01-12T01:44:42.512Z,23.37
2017-01-12T01:44:57.329Z,23.45
2017-01-12T01:45:12.163Z,23.41
2017-01-12T01:45:26.941Z,23.42
2017-01-12T01:45:41.731Z,23.44
2017-01-12T01:45:56.493Z,23.42
2017-01-12T01:46:11.360Z,23.5
2017-01-12T01:46:26.139Z,23.41
2017-01-12T01:46:40.919Z,23.35
2017-01-12T01:46:55.704Z,23.37
2017-01-12T01:47:10.560Z,23.37
2017-01-12T01:47:25.399Z,23.38
2017-01-12T01:47:40.155Z,23.4
2017-01-12T01:47:54.997Z,23.26
2017-01-12T01:48:09.823Z,23.32
2017-01-12T01:48:24.703Z,23.28
2017-01-12T01:48:39.486Z,23.32
2017-01-12T01:48:54.292Z,23.29
2017-01-12T01:49:09.096Z,23.37
2017-01-12T01:49:23.931Z,23.32
2017-01-12T01:49:38.650Z,23.25
2017-01-12T01:49:53.475Z,23.18
2017-01-12T01:50:08.235Z,23.22
2017-01-12T01:50:22.981Z,23.19
2017-01-12T01:50:37.761Z,23.15
2017-01-12T01:50:52.595Z,23.12
2017-01-12T01:51:07.354Z,23.16
2017-01-12T01:51:22.221Z,23.15
2017-01-12T01:51:37.052Z,23.07
2017-01-12T01:51:51.846Z,23.18
2017-01-12T01:52:06.649Z,23.12
2017-01-12T01:52:21.436Z,23.14
2017-01-12T01:52:36.258Z,23.14
2017-01-12T01:52:51.067Z,23.03
2017-01-12T01:53:05.859Z,23.09
2017-01-12T01:53:20.717Z,23.14
2017-01-12T01:53:35.577Z,23.14
2017-01-12T01:53:50.523Z,23.12
2017-01-12T01:54:05.409Z,23.21
2017-01-12T01:54:20.234Z,23.16
2017-01-12T01:54:35.044Z,23.24
2017-01-12T01:54:49.780Z,23.24
2017-01-12T01:55:04.544Z,23.28
2017-01-12T01:55:19.384Z,23.25
2017-01-12T01:55:34.253Z,23.29
2017-01-12T01:55:49.476Z,23.25
2017-01-12T01:56:04.269Z,23.22
2017-01-12T01:56:19.058Z,23.34
2017-01-12T01:56:33.826Z,23.29
2017-01-12T01:56:48.606Z,23.29
2017-01-12T01:57:03.382Z,23.34
2017-01-12T01:57:18.205Z,23.29
2017-01-12T01:57:32.964Z,23.28
2017-01-12T01:57:47.799Z,23.28
2017-01-12T01:58:02.689Z,23.34
2017-01-12T01:58:17.476Z,23.32
2017-01-12T01:58:32.287Z,23.34
2017-01-12T01:58:47.051Z,23.32
2017-01-12T01:59:01.866Z,23.34
2017-01-12T01:59:16.613Z,23.29
2017-01-12T01:59:31.332Z,23.28
2017-01-12T01:59:46.139Z,23.21
2017-01-12T02:00:01.004Z,23.29
2017-01-12T02:00:15.854Z,23.26
2017-01-12T02:00:30.685Z,23.32
2017-01-12T02:00:45.489Z,23.35
2017-01-12T02:01:00.328Z,23.34
2017-01-12T02:01:15.123Z,23.28
2017-01-12T02:01:29.924Z,23.28
2017-01-12T02:01:44.775Z,23.28
2017-01-12T02:01:59.583Z,23.25
2017-01-12T02:02:14.349Z,23.25
2017-01-12T02:02:29.120Z,23.21
2017-01-12T02:02:43.878Z,23.21
2017-01-12T02:02:58.718Z,23.24
2017-01-12T02:03:13.505Z,23.24
2017-01-12T02:03:28.311Z,23.25
2017-01-12T02:03:43.124Z,23.32
2017-01-12T02:03:57.915Z,23.24
2017-01-12T02:04:12.731Z,23.29
2017-01-12T02:04:27.539Z,23.29
2017-01-12T02:04:42.291Z,23.34
2017-01-12T02:04:57.048Z,23.22
2017-01-12T02:05:11.843Z,23.26
2017-01-12T02:05:26.638Z,23.25
2017-01-12T02:05:41.464Z,23.32
2017-01-12T02:05:56.274Z,23.21
2017-01-12T02:06:11.043Z,23.19
2017-01-12T02:06:25.810Z,23.26
2017-01-12T02:06:40.654Z,23.09
2017-01-12T02:06:55.441Z,23.21
2017-01-12T02:07:10.193Z,23.12
2017-01-12T02:07:24.980Z,23.06
2017-01-12T02:07:39.760Z,23.15
2017-01-12T02:07:54.511Z,23.22
2017-01-12T02:08:09.322Z,23.04
2017-01-12T02:08:24.145Z,23.04
2017-01-12T02:08:38.917Z,23.1
2017-01-12T02:08:53.675Z,23.09
2017-01-12T02:09:08.464Z,23
2017-01-12T02:09:23.209Z,23
2017-01-12T02:09:38.025Z,23.09
2017-01-12T02:09:52.827Z,23.1
2017-01-12T02:10:07.617Z,23.12
2017-01-12T02:10:22.449Z,23.12
2017-01-12T02:10:37.205Z,23.09
2017-01-12T02:10:51.955Z,23.14
2017-01-12T02:11:07.127Z,23.12
2017-01-12T02:11:21.938Z,23.09
2017-01-12T02:11:36.684Z,23
2017-01-12T02:11:51.561Z,23
2017-01-12T02:12:06.459Z,23.04
2017-01-12T02:12:21.317Z,23
2017-01-12T02:12:36.075Z,23.03
2017-01-12T02:12:50.862Z,23.07
2017-01-12T02:13:05.568Z,22.94
2017-01-12T02:13:20.461Z,22.89
2017-01-12T02:13:35.263Z,22.88
2017-01-12T02:13:50.119Z,22.97
2017-01-12T02:14:04.950Z,22.89
2017-01-12T02:14:19.761Z,22.94
2017-01-12T02:14:34.565Z,22.82
2017-01-12T02:14:49.344Z,22.84
2017-01-12T02:15:04.100Z,22.85
2017-01-12T02:15:18.907Z,22.92
2017-01-12T02:15:33.722Z,22.82
2017-01-12T02:15:48.528Z,22.84
2017-01-12T02:16:03.340Z,22.86
2017-01-12T02:16:18.180Z,22.94
2017-01-12T02:16:33.004Z,22.89
2017-01-12T02:16:47.771Z,22.96
2017-01-12T02:17:02.597Z,22.92
2017-01-12T02:17:17.382Z,22.89
2017-01-12T02:17:32.143Z,22.96
2017-01-12T02:17:46.866Z,22.94
2017-01-12T02:18:01.711Z,22.92
2017-01-12T02:18:16.507Z,22.88
2017-01-12T02:18:31.347Z,22.97
2017-01-12T02:18:46.186Z,22.85
2017-01-12T02:19:01.016Z,22.82
2017-01-12T02:19:15.812Z,22.84
2017-01-12T02:19:30.632Z,22.85
2017-01-12T02:19:45.517Z,22.86
2017-01-12T02:20:00.280Z,22.88
2017-01-12T02:20:15.122Z,22.86
2017-01-12T02:20:29.937Z,22.84
2017-01-12T02:20:44.730Z,22.81
2017-01-12T02:20:59.585Z,22.81
2017-01-12T02:21:14.392Z,22.81
2017-01-12T02:21:29.226Z,22.88
2017-01-12T02:21:44.038Z,22.76
2017-01-12T02:21:58.825Z,22.82
2017-01-12T02:22:13.596Z,22.84
2017-01-12T02:22:28.366Z,22.82
2017-01-12T02:22:43.156Z,22.81
2017-01-12T02:22:57.965Z,22.82
2017-01-12T02:23:12.745Z,22.81
2017-01-12T02:23:27.557Z,22.79
2017-01-12T02:23:42.342Z,22.76
2017-01-12T02:23:57.154Z,22.84
2017-01-12T02:24:11.947Z,22.81
2017-01-12T02:24:26.768Z,22.84
2017-01-12T02:24:41.565Z,22.86
2017-01-12T02:24:56.353Z,22.86
2017-01-12T02:25:11.131Z,22.82
2017-01-12T02:25:25.964Z,22.84
2017-01-12T02:25:40.823Z,22.92
2017-01-12T02:25:55.580Z,22.96
2017-01-12T02:26:10.841Z,22.89
2017-01-12T02:26:25.636Z,23.06
2017-01-12T02:26:40.432Z,23
2017-01-12T02:26:55.252Z,23.01
2017-01-12T02:27:10.048Z,23.04
2017-01-12T02:27:24.821Z,22.96
2017-01-12T02:27:39.638Z,23.01
2017-01-12T02:27:54.667Z,23.09
2017-01-12T02:28:09.471Z,23.07
2017-01-12T02:28:24.266Z,23.06
2017-01-12T02:28:39.022Z,23.1
2017-01-12T02:28:53.862Z,23.07
2017-01-12T02:29:08.712Z,23.09
2017-01-12T02:29:23.509Z,23.1
2017-01-12T02:29:38.294Z,23.09
2017-01-12T02:29:53.067Z,23.1
2017-01-12T02:30:07.936Z,23.18
2017-01-12T02:30:22.747Z,23.03
2017-01-12T02:30:37.615Z,23.07
2017-01-12T02:30:52.458Z,23.22
2017-01-12T02:31:07.257Z,23.06
2017-01-12T02:31:22.015Z,23.14
2017-01-12T02:31:36.802Z,23.09
2017-01-12T02:31:51.680Z,23.1
2017-01-12T02:32:06.399Z,23.18
2017-01-12T02:32:21.162Z,23.18
2017-01-12T02:32:35.990Z,23.21
2017-01-12T02:32:50.860Z,23.07
2017-01-12T02:33:05.691Z,23.09
2017-01-12T02:33:20.581Z,23.14
2017-01-12T02:33:35.403Z,23.18
2017-01-12T02:33:50.204Z,23.19
2017-01-12T02:34:05.031Z,23.16
2017-01-12T02:34:19.926Z,23.1
2017-01-12T02:34:34.738Z,23.1
2017-01-12T02:34:49.563Z,23.15
2017-01-12T02:35:04.366Z,23.09
2017-01-12T02:35:19.182Z,23.07
2017-01-12T02:35:33.984Z,23.12
2017-01-12T02:35:48.790Z,23.07
2017-01-12T02:36:03.581Z,23.07
2017-01-12T02:36:18.369Z,23.16
2017-01-12T02:36:33.133Z,23.18
2017-01-12T02:36:47.982Z,23.06
2017-01-12T02:37:02.827Z,23.19
2017-01-12T02:37:17.609Z,23.16
2017-01-12T02:37:32.455Z,23.12
2017-01-12T02:37:47.246Z,23.22
2017-01-12T02:38:02.013Z,23.18
2017-01-12T02:38:16.878Z,23.22
2017-01-12T02:38:31.681Z,23.19
2017-01-12T02:38:46.496Z,23.22
2017-01-12T02:39:01.248Z,23.18
2017-01-12T02:39:15.947Z,23.16
2017-01-12T02:39:30.791Z,23.22
2017-01-12T02:39:45.579Z,23.22
2017-01-12T02:40:00.422Z,23.24
2017-01-12T02:40:15.329Z,23.28
2017-01-12T02:40:30.141Z,23.34
2017-01-12T02:40:45.000Z,23.28
2017-01-12T02:40:59.741Z,23.28
2017-01-12T02:41:14.796Z,23.26
2017-01-12T02:41:29.582Z,23.26
2017-01-12T02:41:44.369Z,23.32
2017-01-12T02:41:59.193Z,23.19
2017-01-12T02:42:13.996Z,23.28
2017-01-12T02:42:28.804Z,23.22
2017-01-12T02:42:43.603Z,23.21
2017-01-12T02:42:58.385Z,23.25
2017-01-12T02:43:13.169Z,23.21
2017-01-12T02:43:27.948Z,23.29
2017-01-12T02:43:42.691Z,23.25
2017-01-12T02:43:57.517Z,23.26
2017-01-12T02:44:12.380Z,23.21
2017-01-12T02:44:27.207Z,23.21
2017-01-12T02:44:41.967Z,23.16
2017-01-12T02:44:56.752Z,23.18
2017-01-12T02:45:11.645Z,23.1
2017-01-12T02:45:26.505Z,23.24
2017-01-12T02:45:41.307Z,23.12
2017-01-12T02:45:56.114Z,23.22
2017-01-12T02:46:10.855Z,23.26
2017-01-12T02:46:25.673Z,23.18
2017-01-12T02:46:40.408Z,23.21
2017-01-12T02:46:55.142Z,23.21
2017-01-12T02:47:09.894Z,23.24
2017-01-12T02:47:24.641Z,23.16
2017-01-12T02:47:39.400Z,23.15
2017-01-12T02:47:54.182Z,23.16
2017-01-12T02:48:09.087Z,23.21
2017-01-12T02:48:23.873Z,23.24
2017-01-12T02:48:38.724Z,23.22
2017-01-12T02:48:53.546Z,23.19
2017-01-12T02:49:08.436Z,23.25
2017-01-12T02:49:23.241Z,23.29
2017-01-12T02:49:38.041Z,23.32
2017-01-12T02:49:52.804Z,23.37
2017-01-12T02:50:07.592Z,23.29
2017-01-12T02:50:22.383Z,23.42
2017-01-12T02:50:37.226Z,23.42
2017-01-12T02:50:51.999Z,23.38
2017-01-12T02:51:06.768Z,23.45
2017-01-12T02:51:21.560Z,23.48
2017-01-12T02:51:36.362Z,23.4
2017-01-12T02:51:51.177Z,23.38
2017-01-12T02:52:05.989Z,23.37
2017-01-12T02:52:20.862Z,23.44
2017-01-12T02:52:35.604Z,23.42
2017-01-12T02:52:50.403Z,23.34
2017-01-12T02:53:05.165Z,23.4
2017-01-12T02:53:19.902Z,23.29
2017-01-12T02:53:34.726Z,23.29
2017-01-12T02:53:49.493Z,23.21
2017-01-12T02:54:04.378Z,23.22
2017-01-12T02:54:19.201Z,23.14
2017-01-12T02:54:34.066Z,23.09
2017-01-12T02:54:48.876Z,23.04
2017-01-12T02:55:03.656Z,23.06
2017-01-12T02:55:18.432Z,23.06
2017-01-12T02:55:33.242Z,23.1
2017-01-12T02:55:48.075Z,23.07
2017-01-12T02:56:02.889Z,23.06
2017-01-12T02:56:18.020Z,23.09
2017-01-12T02:56:32.886Z,23.14
2017-01-12T02:56:47.719Z,23.12
2017-01-12T02:57:02.466Z,23.07
2017-01-12T02:57:17.254Z,23.1
2017-01-12T02:57:31.985Z,23.03
2017-01-12T02:57:46.766Z,23.03
2017-01-12T02:58:01.547Z,23.1
2017-01-12T02:58:16.314Z,23.07
2017-01-12T02:58:31.161Z,23.03
2017-01-12T02:58:46.021Z,23.15
2017-01-12T02:59:00.869Z,23
2017-01-12T02:59:15.626Z,23.07
2017-01-12T02:59:30.367Z,23.09
2017-01-12T02:59:45.187Z,23.15
2017-01-12T03:00:00.107Z,23.16
2017-01-12T03:00:14.928Z,23.16
2017-01-12T03:00:29.741Z,23.16
2017-01-12T03:00:45.103Z,23.16
2017-01-12T03:00:59.930Z,23.19
2017-01-12T03:01:14.655Z,23.22
2017-01-12T03:01:29.476Z,23.28
2017-01-12T03:01:44.302Z,23.32
2017-01-12T03:01:59.049Z,23.29
2017-01-12T03:02:13.875Z,23.26
2017-01-12T03:02:28.588Z,23.28
2017-01-12T03:02:43.971Z,23.25
2017-01-12T03:02:58.763Z,23.34
2017-01-12T03:03:13.592Z,23.28
2017-01-12T03:03:28.420Z,23.25
2017-01-12T03:03:43.213Z,23.37
2017-01-12T03:03:58.002Z,23.28
2017-01-12T03:04:12.756Z,23.37
2017-01-12T03:04:27.555Z,23.29
2017-01-12T03:04:42.320Z,23.35
2017-01-12T03:04:57.125Z,23.37
2017-01-12T03:05:11.921Z,23.29
2017-01-12T03:05:26.729Z,23.29
2017-01-12T03:05:41.605Z,23.25
2017-01-12T03:05:56.355Z,23.38
2017-01-12T03:06:11.151Z,23.34
2017-01-12T03:06:25.953Z,23.32
2017-01-12T03:06:40.726Z,23.38
2017-01-12T03:06:55.523Z,23.42
2017-01-12T03:07:10.379Z,23.45
2017-01-12T03:07:25.228Z,23.41
2017-01-12T03:07:40.048Z,23.44
2017-01-12T03:07:54.841Z,23.45
2017-01-12T03:08:09.701Z,23.48
2017-01-12T03:08:24.500Z,23.42
2017-01-12T03:08:39.278Z,23.44
2017-01-12T03:08:54.073Z,23.4
2017-01-12T03:09:08.873Z,23.42
2017-01-12T03:09:23.741Z,23.45
2017-01-12T03:09:38.589Z,23.48
2017-01-12T03:09:53.362Z,23.45
2017-01-12T03:10:08.119Z,23.5
2017-01-12T03:10:22.928Z,23.55
2017-01-12T03:10:37.762Z,23.45
2017-01-12T03:10:52.600Z,23.45
2017-01-12T03:11:07.430Z,23.48